Milam Dairy, Florida
Current Conditions -  °F | °C
As of 8:53 AM on Monday 24 Nov 2014 (Local Time) from KMIA Reporting Station
Broken Clouds Broken Clouds  
Wind Chill: 81°   Ceiling: 1100
Heat Index: 88°   Visibility: 7mi
Dew Point: 77°   Wind: 10mph
Humidity: 88%   Direction: 160°SSE
Pressure: 30.02"   Gusts: NA
Location:  25.8267°N, 80.3148°W
Report Text: KMIA 241353Z 16009KT 7SM FEW008 BKN011 27/25 A3002 RMK AO2 SLP167 T02720250
Loading
Personal Weather Stations






























Interactive Weather Map New forecast layout! Learn more

10-Day Weather Forecast

Advertisements
Track Severe Weather on mobile